Time;durP1;ratioP1;P1;durP2;ratioP2;P2;SDS_P1;SDS_P2;PMS_P1;PMS_P2;Temp;Humidity;BMP_temperature;BMP_pressure;BME280_temperature;BME280_humidity;BME280_pressure;Samples;Min_cycle;Max_cycle;Signal;HPM_P1;HPM_P2
2022/07/06 00:00:06;;;;;;;7.67;6.92;;;;;;;23.85;54.41;99186.32;1712602;83;21033;-44
2022/07/06 00:02:33;;;;;;;;;;;;;;;23.84;54.42;99184.16;1715394;83;21435;-44
2022/07/06 00:05:00;;;;;;;12.53;7.37;;;;;;;23.82;54.37;99184.61;1712572;83;21314;-45
2022/07/06 00:07:27;;;;;;;7.85;6.87;;;;;;;23.72;54.61;99186.41;1712269;83;21507;-44
2022/07/06 00:09:54;;;;;;;8.68;7.37;;;;;;;23.74;54.68;99179.19;1712412;83;21040;-45
2022/07/06 00:12:21;;;;;;;9.45;7.87;;;;;;;23.76;54.79;99177.36;1712484;83;21052;-45
2022/07/06 00:14:48;;;;;;;9.25;7.37;;;;;;;23.76;54.85;99187.83;1712724;83;21559;-44
2022/07/06 00:17:16;;;;;;;9.55;6.90;;;;;;;23.74;54.61;99182.56;1712547;83;21140;-44
2022/07/06 00:19:43;;;;;;;7.90;7.10;;;;;;;23.73;54.51;99186.55;1712474;83;20966;-44
2022/07/06 00:22:10;;;;;;;7.95;7.15;;;;;;;23.72;54.48;99185.03;1712490;83;20973;-44
2022/07/06 00:24:37;;;;;;;8.08;7.10;;;;;;;23.71;54.45;99183.48;1712566;83;21105;-44
2022/07/06 00:27:05;;;;;;;9.35;7.28;;;;;;;23.68;54.39;99182.38;1712556;83;21057;-44
2022/07/06 00:29:32;;;;;;;10.95;7.33;;;;;;;23.67;54.54;99179.44;1712553;83;21216;-44
2022/07/06 00:31:59;;;;;;;8.48;6.65;;;;;;;23.65;54.58;99181.91;1712469;83;20993;-44
2022/07/06 00:34:26;;;;;;;8.90;7.17;;;;;;;23.64;54.53;99178.20;1712445;83;21599;-44
2022/07/06 00:36:53;;;;;;;9.00;6.97;;;;;;;23.63;54.64;99186.33;1712720;83;20989;-44
2022/07/06 00:39:21;;;;;;;9.18;6.78;;;;;;;23.60;54.44;99185.25;1712440;83;21034;-44
2022/07/06 00:41:49;;;;;;;8.18;7.00;;;;;;;23.59;54.42;99181.55;1712719;83;21244;-44
2022/07/06 00:44:16;;;;;;;8.63;7.42;;;;;;;23.56;54.56;99176.31;1712457;83;21029;-44
2022/07/06 00:46:43;;;;;;;8.73;6.78;;;;;;;23.54;54.53;99173.22;1712495;83;20988;-44
2022/07/06 00:50:13;;;;;;;9.13;6.67;;;;;;;23.52;54.45;99172.91;1712628;83;21041;-44
2022/07/06 00:51:39;;;;;;;7.25;6.10;;;;;;;23.51;54.45;99169.20;1708896;83;21100;-45
2022/07/06 00:54:06;;;;;;;8.00;6.70;;;;;;;23.49;54.50;99164.72;1712765;83;21632;-44
2022/07/06 00:56:34;;;;;;;7.10;6.30;;;;;;;23.47;54.53;99165.19;1712502;83;21583;-45
2022/07/06 00:59:02;;;;;;;8.28;7.00;;;;;;;23.45;54.47;99164.86;1712695;83;21030;-45
2022/07/06 01:01:29;;;;;;;8.70;6.80;;;;;;;23.44;54.42;99167.42;1712736;83;20985;-45
2022/07/06 01:03:56;;;;;;;6.75;6.15;;;;;;;23.43;54.49;99162.36;1712737;83;21096;-44
2022/07/06 01:06:25;;;;;;;8.98;7.05;;;;;;;23.39;54.50;99157.71;1712557;83;20969;-44
2022/07/06 01:08:54;;;;;;;9.88;6.45;;;;;;;23.36;54.47;99161.39;1712814;83;21524;-44
2022/07/06 01:11:22;;;;;;;8.35;6.85;;;;;;;23.33;54.50;99162.27;1712478;83;21044;-44
2022/07/06 01:13:49;;;;;;;7.30;6.05;;;;;;;23.30;54.54;99157.66;1712419;83;21033;-44
2022/07/06 01:16:17;;;;;;;7.70;6.45;;;;;;;23.29;54.63;99160.25;1686049;83;21049;-43
2022/07/06 01:18:44;;;;;;;8.60;6.22;;;;;;;23.28;54.72;99164.88;1712386;83;23152;-43
2022/07/06 01:21:13;;;;;;;8.43;6.75;;;;;;;23.26;54.66;99162.55;1712408;83;21032;-43
2022/07/06 01:23:42;;;;;;;7.15;6.45;;;;;;;23.25;54.68;99160.99;1712530;83;21048;-44
2022/07/06 01:26:12;;;;;;;9.05;6.55;;;;;;;23.24;54.67;99158.67;1712553;83;20938;-43
2022/07/06 01:28:39;;;;;;;;;;;;;;;23.22;54.73;99154.22;1715169;83;21048;-44
2022/07/06 01:31:20;;;;;;;11.00;6.12;;;;;;;23.21;54.75;99149.90;1712578;83;21326;-44
2022/07/06 01:33:49;;;;;;;7.83;5.92;;;;;;;23.11;54.99;99152.43;1697052;83;20989;-43
2022/07/06 01:36:16;;;;;;;8.30;6.37;;;;;;;23.11;55.05;99145.52;1712681;83;21057;-43
2022/07/06 01:38:49;;;;;;;8.13;6.40;;;;;;;23.11;55.01;99142.75;1712394;83;20985;-43
2022/07/06 01:41:17;;;;;;;7.90;6.62;;;;;;;23.09;55.06;99148.72;1712502;83;21038;-44
2022/07/06 01:43:44;;;;;;;7.85;6.33;;;;;;;23.08;55.07;99153.34;1712439;83;21198;-44
2022/07/06 01:46:12;;;;;;;6.95;6.20;;;;;;;23.07;55.05;99154.55;1712395;83;21001;-44
2022/07/06 01:48:39;;;;;;;6.67;6.00;;;;;;;23.05;55.08;99143.94;1712887;83;21530;-44
2022/07/06 01:51:06;;;;;;;7.90;6.12;;;;;;;23.04;55.09;99140.25;1712441;83;21558;-44
2022/07/06 01:53:34;;;;;;;7.50;6.80;;;;;;;23.04;55.05;99145.78;1712678;83;21061;-44
2022/07/06 01:56:01;;;;;;;7.97;6.62;;;;;;;23.03;55.10;99149.77;1712720;83;21155;-44
2022/07/06 01:58:29;;;;;;;12.93;5.97;;;;;;;23.01;55.12;99154.95;1712829;83;20985;-44
2022/07/06 02:00:58;;;;;;;9.08;6.55;;;;;;;22.98;55.15;99153.88;1712878;83;21069;-44
2022/07/06 02:03:25;;;;;;;9.95;7.05;;;;;;;22.99;55.25;99139.44;1712842;83;21017;-44
2022/07/06 02:05:52;;;;;;;7.95;6.25;;;;;;;22.98;55.22;99147.57;1712841;83;21069;-44
2022/07/06 02:08:21;;;;;;;9.13;6.85;;;;;;;22.97;55.41;99149.55;1713128;83;22076;-44
2022/07/06 02:10:48;;;;;;;7.58;6.75;;;;;;;22.95;55.45;99147.84;1712805;83;21307;-44
2022/07/06 02:13:16;;;;;;;9.43;7.35;;;;;;;22.93;55.60;99153.06;1712744;83;21021;-44
2022/07/06 02:15:43;;;;;;;6.90;6.05;;;;;;;22.92;55.65;99149.52;1712722;83;21053;-44
2022/07/06 02:18:10;;;;;;;8.40;7.15;;;;;;;22.91;55.62;99148.58;1712709;83;21108;-44
2022/07/06 02:20:37;;;;;;;8.80;6.72;;;;;;;22.91;55.67;99141.06;1712574;83;21142;-44
2022/07/06 02:23:06;;;;;;;11.27;6.90;;;;;;;22.90;55.71;99147.80;1712852;83;20934;-44
2022/07/06 02:25:33;;;;;;;7.28;6.47;;;;;;;22.90;55.88;99152.55;1712538;83;21942;-45
2022/07/06 02:28:01;;;;;;;7.90;6.35;;;;;;;22.88;55.85;99144.73;1707400;83;21066;-44
2022/07/06 02:30:29;;;;;;;7.30;6.53;;;;;;;22.88;55.89;99140.58;1706898;84;21045;-44
2022/07/06 02:32:57;;;;;;;9.63;6.60;;;;;;;22.89;55.98;99146.28;1702651;84;23178;-43
2022/07/06 02:35:24;;;;;;;7.87;6.85;;;;;;;22.91;55.93;99145.81;1706866;84;20981;-44
2022/07/06 02:37:52;;;;;;;8.18;6.05;;;;;;;22.90;55.98;99138.13;1706911;84;21026;-44
2022/07/06 02:40:19;;;;;;;10.08;6.42;;;;;;;22.92;55.97;99145.38;1706877;84;21678;-44
2022/07/06 02:42:46;;;;;;;9.65;6.75;;;;;;;22.93;55.88;99142.78;1706998;84;21045;-44
2022/07/06 02:45:13;;;;;;;7.17;6.47;;;;;;;22.94;55.85;99141.56;1706714;84;23114;-44
2022/07/06 02:47:41;;;;;;;8.70;6.10;;;;;;;22.95;55.84;99144.47;1706929;84;20966;-44
2022/07/06 02:50:10;;;;;;;8.28;6.60;;;;;;;22.96;55.90;99139.11;1707048;84;21292;-44
2022/07/06 02:52:38;;;;;;;8.10;6.15;;;;;;;22.96;55.97;99146.02;1700515;84;21060;-44
2022/07/06 02:55:07;;;;;;;7.95;6.35;;;;;;;22.98;55.89;99145.58;1700512;84;21663;-44
2022/07/06 02:57:35;;;;;;;7.67;6.35;;;;;;;23.00;56.01;99146.49;1700299;84;21786;-44
2022/07/06 03:00:05;;;;;;;7.92;6.50;;;;;;;22.99;56.03;99133.30;1700212;84;21625;-44
2022/07/06 03:02:32;;;;;;;6.78;6.08;;;;;;;23.01;55.94;99137.77;1700675;84;20969;-43
2022/07/06 03:04:59;;;;;;;7.90;6.37;;;;;;;23.05;55.90;99142.55;1700071;84;21595;-43
2022/07/06 03:07:27;;;;;;;8.35;6.50;;;;;;;23.07;55.98;99137.96;1700121;84;21527;-43
2022/07/06 03:09:54;;;;;;;7.25;5.75;;;;;;;23.10;55.91;99139.81;1700161;84;21170;-43
2022/07/06 03:12:22;;;;;;;6.62;6.03;;;;;;;23.14;55.97;99144.64;1699959;84;20988;-43
2022/07/06 03:14:49;;;;;;;6.85;6.25;;;;;;;23.17;56.03;99139.58;1700056;84;21056;-43
2022/07/06 03:17:16;;;;;;;7.25;6.08;;;;;;;23.20;55.88;99138.67;1699837;84;21055;-44
2022/07/06 03:19:43;;;;;;;10.30;6.58;;;;;;;23.24;55.76;99135.94;1699760;84;21060;-44
2022/07/06 03:22:10;;;;;;;8.00;6.08;;;;;;;23.29;55.67;99137.34;1699891;84;21133;-44
2022/07/06 03:24:37;;;;;;;7.37;6.33;;;;;;;23.33;55.74;99138.76;1699820;84;21041;-44
2022/07/06 03:27:06;;;;;;;7.05;6.35;;;;;;;23.39;55.65;99150.02;1699950;83;20992;-44
2022/07/06 03:29:34;;;;;;;8.48;5.97;;;;;;;23.45;55.59;99146.87;1709570;83;21044;-44
2022/07/06 03:32:01;;;;;;;8.10;6.40;;;;;;;23.50;55.55;99144.12;1700246;84;21543;-44
2022/07/06 03:34:29;;;;;;;7.20;5.90;;;;;;;23.55;55.54;99145.70;1709810;83;21289;-44
2022/07/06 03:36:56;;;;;;;8.58;6.70;;;;;;;23.60;55.59;99147.89;1697737;84;21552;-44
2022/07/06 03:39:24;;;;;;;9.40;6.60;;;;;;;23.66;55.73;99146.70;1653931;86;20937;-44
2022/07/06 03:41:51;;;;;;;7.50;6.17;;;;;;;23.72;55.62;99151.81;1653924;86;21101;-44
2022/07/06 03:44:18;;;;;;;7.58;6.08;;;;;;;23.76;55.57;99148.30;1653862;86;21053;-44
2022/07/06 03:46:46;;;;;;;8.00;6.30;;;;;;;23.81;55.51;99147.09;1653806;86;21162;-44
2022/07/06 03:49:13;;;;;;;9.53;6.30;;;;;;;23.86;55.56;99149.11;1653837;86;21073;-44
2022/07/06 03:51:40;;;;;;;6.55;5.67;;;;;;;23.91;55.35;99149.91;1653964;86;21079;-44
2022/07/06 03:54:07;;;;;;;13.93;6.20;;;;;;;23.94;55.01;99151.75;1653962;86;21519;-44
2022/07/06 03:56:34;;;;;;;6.87;6.20;;;;;;;23.97;55.15;99147.45;1653831;86;21092;-44
2022/07/06 03:59:03;;;;;;;6.55;5.90;;;;;;;24.02;55.14;99156.55;1653561;86;21234;-44
2022/07/06 04:01:32;;;;;;;6.60;5.80;;;;;;;24.08;55.14;99145.66;1654000;86;21042;-43
2022/07/06 04:04:00;;;;;;;6.22;5.62;;;;;;;24.14;54.93;99141.07;1653896;86;20969;-43
2022/07/06 04:06:28;;;;;;;7.20;5.83;;;;;;;24.20;54.87;99140.67;1653763;86;21056;-44
2022/07/06 04:08:55;;;;;;;7.33;5.83;;;;;;;24.29;54.86;99146.23;1653759;86;21104;-44
2022/07/06 04:11:22;;;;;;;6.45;5.70;;;;;;;24.33;54.68;99141.31;1653766;86;21241;-44
2022/07/06 04:13:50;;;;;;;7.12;5.78;;;;;;;24.36;54.93;99140.39;1653922;86;21021;-44
2022/07/06 04:16:18;;;;;;;6.83;5.62;;;;;;;24.40;54.69;99140.27;1653756;86;20977;-44
2022/07/06 04:18:46;;;;;;;7.05;5.92;;;;;;;24.43;54.74;99137.34;1653803;86;21001;-44
2022/07/06 04:21:13;;;;;;;6.90;5.75;;;;;;;24.47;54.46;99143.50;1653746;86;21571;-44
2022/07/06 04:23:41;;;;;;;8.40;6.15;;;;;;;24.50;54.39;99139.80;1653876;86;21246;-44
2022/07/06 04:26:10;;;;;;;7.58;6.20;;;;;;;24.58;54.20;99153.55;1654025;86;21049;-44
2022/07/06 04:28:38;;;;;;;9.30;5.67;;;;;;;24.65;54.01;99149.69;1663074;85;21599;-44
2022/07/06 04:31:05;;;;;;;7.28;5.78;;;;;;;24.73;54.05;99146.02;1748412;82;21004;-43
2022/07/06 04:33:33;;;;;;;8.05;5.95;;;;;;;24.79;53.95;99142.77;1748353;82;21024;-44
2022/07/06 04:36:01;;;;;;;6.70;5.87;;;;;;;24.83;53.64;99168.37;1744062;82;21225;-44
2022/07/06 04:38:30;;;;;;;8.70;5.85;;;;;;;24.83;52.88;99180.84;1747092;82;21024;-44
2022/07/06 04:40:59;;;;;;;6.43;5.40;;;;;;;24.81;53.20;99175.75;1748364;82;21035;-44
2022/07/06 04:43:26;;;;;;;8.08;5.40;;;;;;;24.84;52.99;99171.27;1748062;82;21004;-44
2022/07/06 04:45:53;;;;;;;6.80;5.92;;;;;;;24.87;52.76;99168.41;1748104;82;21015;-43
2022/07/06 04:48:20;;;;;;;7.15;5.80;;;;;;;24.92;52.47;99167.02;1748188;82;21133;-44
2022/07/06 04:50:47;;;;;;;8.98;5.67;;;;;;;24.93;52.52;99151.92;1748254;82;20986;-44
2022/07/06 04:53:16;;;;;;;8.37;5.40;;;;;;;24.95;52.31;99151.61;1748064;82;21217;-44
2022/07/06 04:55:43;;;;;;;9.68;5.92;;;;;;;24.99;52.14;99142.51;1748346;82;21056;-43
2022/07/06 04:58:10;;;;;;;7.75;5.95;;;;;;;25.06;52.20;99149.77;1748475;82;21015;-43
2022/07/06 05:00:38;;;;;;;6.85;5.83;;;;;;;25.10;52.41;99146.22;1748263;82;21258;-44
2022/07/06 05:03:05;;;;;;;8.13;6.00;;;;;;;25.12;51.98;99146.53;1748204;82;21072;-44
2022/07/06 05:05:33;;;;;;;6.70;6.00;;;;;;;25.12;52.04;99143.76;1748192;82;21072;-44
2022/07/06 05:08:01;;;;;;;7.87;5.97;;;;;;;25.09;52.30;99138.50;1748218;82;20968;-44
2022/07/06 05:10:29;;;;;;;8.55;6.10;;;;;;;25.08;52.57;99136.95;1748252;82;21040;-44
2022/07/06 05:12:58;;;;;;;7.65;6.08;;;;;;;25.08;52.75;99137.57;1748509;82;21199;-43
2022/07/06 05:15:28;;;;;;;6.70;6.00;;;;;;;25.10;52.71;99133.73;1747950;82;21008;-43
2022/07/06 05:17:56;;;;;;;6.95;6.25;;;;;;;25.10;53.20;99137.89;1748279;82;20966;-43
2022/07/06 05:20:24;;;;;;;6.33;5.72;;;;;;;25.13;53.28;99133.41;1748157;82;21032;-44
2022/07/06 05:22:51;;;;;;;7.30;6.60;;;;;;;25.16;52.79;99136.05;1719109;82;21081;-43
2022/07/06 05:25:21;;;;;;;7.58;6.78;;;;;;;25.24;52.61;99137.88;1748435;82;21894;-44
2022/07/06 05:27:48;;;;;;;7.97;6.65;;;;;;;25.29;52.73;99126.93;1746131;81;21068;-44
2022/07/06 05:30:16;;;;;;;8.13;6.92;;;;;;;25.35;51.63;99128.47;1743009;82;21021;-44
2022/07/06 05:32:43;;;;;;;9.38;7.00;;;;;;;25.44;51.48;99126.45;1743168;82;21034;-44
2022/07/06 05:35:11;;;;;;;10.70;6.85;;;;;;;25.52;51.49;99126.27;1743172;81;21033;-44
2022/07/06 05:37:39;;;;;;;9.20;7.33;;;;;;;25.61;51.58;99126.88;1743262;82;21219;-44
2022/07/06 05:42:42;;;;;;;7.97;7.15;;;;;;;25.82;51.68;99119.58;1796768;79;22409;-44
2022/07/06 05:45:10;;;;;;;10.23;7.72;;;;;;;25.79;51.46;99117.75;1756706;81;20937;-45
2022/07/06 05:50:24;;;;;;;11.00;7.75;;;;;;;25.96;50.86;99111.95;1756471;81;20957;-45
2022/07/06 05:52:58;;;;;;;9.37;8.40;;;;;;;25.99;50.21;99106.88;1723180;83;20964;-45
2022/07/06 05:55:25;;;;;;;10.15;7.97;;;;;;;26.04;50.18;99107.62;1720258;83;20980;-45
2022/07/06 05:57:56;;;;;;;9.70;7.97;;;;;;;26.08;50.35;99103.27;1697213;84;21619;-45
2022/07/06 06:00:26;;;;;;;9.18;7.83;;;;;;;26.12;50.38;99096.91;1696994;84;23110;-45
2022/07/06 06:02:53;;;;;;;8.48;7.67;;;;;;;26.19;50.09;99090.38;1715137;83;21019;-45
2022/07/06 06:05:21;;;;;;;9.63;8.10;;;;;;;26.28;50.09;99085.44;1707672;84;21024;-45
2022/07/06 06:07:50;;;;;;;8.45;7.47;;;;;;;26.41;50.55;99078.25;1707975;83;21508;-45
2022/07/06 06:10:18;;;;;;;8.48;7.45;;;;;;;26.54;50.28;99074.59;1707658;84;21645;-45
2022/07/06 06:12:49;;;;;;;8.58;7.67;;;;;;;26.67;50.19;99072.35;1707858;84;20992;-45
2022/07/06 06:15:16;;;;;;;8.53;7.60;;;;;;;26.78;49.55;99069.77;1707561;84;21003;-45
2022/07/06 06:17:43;;;;;;;8.95;7.95;;;;;;;26.91;49.38;99066.77;1707828;84;21052;-45
2022/07/06 06:20:13;;;;;;;8.18;7.37;;;;;;;27.04;49.64;99059.69;1707815;84;20949;-45
2022/07/06 06:22:52;;;;;;;10.13;7.95;;;;;;;27.19;49.40;99056.29;1707974;84;21034;-45
2022/07/06 06:25:21;;;;;;;10.53;7.77;;;;;;;27.32;49.71;99058.77;1706865;84;21146;-45
2022/07/06 06:27:49;;;;;;;15.15;8.88;;;;;;;27.42;49.72;99063.62;1707980;84;21028;-45
2022/07/06 06:30:15;;;;;;;11.12;7.78;;;;;;;27.53;49.09;99054.09;1707849;84;21570;-45
2022/07/06 06:32:43;;;;;;;8.65;7.67;;;;;;;27.60;49.23;99055.08;1707854;84;21000;-45
2022/07/06 06:35:10;;;;;;;10.20;8.20;;;;;;;27.67;49.19;99053.30;1707870;84;21123;-45
2022/07/06 06:37:37;;;;;;;12.85;8.65;;;;;;;27.76;49.04;99046.22;1707564;84;21255;-45
2022/07/06 06:40:06;;;;;;;15.72;8.20;;;;;;;27.89;48.49;99040.31;1707700;84;21032;-45
2022/07/06 06:42:42;;;;;;;12.27;8.40;;;;;;;27.99;48.08;99038.32;1697672;83;21065;-45
2022/07/06 06:45:10;;;;;;;10.68;8.00;;;;;;;28.10;47.81;99034.92;1694512;84;21544;-45
2022/07/06 06:47:38;;;;;;;10.43;8.70;;;;;;;28.19;47.24;99034.82;1695406;84;21571;-46
2022/07/06 06:50:06;;;;;;;10.40;8.30;;;;;;;28.31;46.82;99030.94;1695539;84;21132;-46
2022/07/06 06:52:35;;;;;;;8.45;7.65;;;;;;;28.42;46.88;99031.67;1695035;84;20993;-46
2022/07/06 06:55:02;;;;;;;11.35;8.25;;;;;;;28.53;46.50;99030.42;1694934;84;21527;-45
2022/07/06 06:57:29;;;;;;;9.15;8.25;;;;;;;28.67;46.16;99030.96;1694738;84;20965;-46
2022/07/06 06:59:57;;;;;;;8.90;7.55;;;;;;;28.78;46.38;99022.75;1694767;84;21112;-46
2022/07/06 07:02:24;;;;;;;10.80;7.00;;;;;;;28.92;45.93;99021.11;1694805;84;21185;-46
2022/07/06 07:04:51;;;;;;;10.72;7.28;;;;;;;29.06;45.73;99027.83;1694877;84;21650;-46
2022/07/06 07:07:19;;;;;;;10.80;7.22;;;;;;;29.19;45.47;99032.41;1694826;84;21085;-46
2022/07/06 07:09:48;;;;;;;8.93;7.22;;;;;;;29.30;45.07;99036.68;1694912;84;21047;-46
2022/07/06 07:12:16;;;;;;;12.03;6.72;;;;;;;29.43;44.77;99031.51;1694813;84;21009;-45
2022/07/06 07:14:44;;;;;;;7.20;6.22;;;;;;;29.56;44.41;99040.23;1694877;84;21132;-45
2022/07/06 07:17:12;;;;;;;9.63;7.05;;;;;;;29.66;43.78;99022.66;1694882;84;20984;-45
2022/07/06 07:19:40;;;;;;;9.65;6.35;;;;;;;29.77;43.37;99019.28;1694739;84;21033;-45
2022/07/06 07:22:07;;;;;;;6.95;6.22;;;;;;;29.91;43.19;99021.84;1694688;84;21104;-46
2022/07/06 07:24:34;;;;;;;7.90;6.55;;;;;;;30.01;43.01;99014.78;1694512;84;21602;-46
2022/07/06 07:27:02;;;;;;;8.58;6.50;;;;;;;30.12;42.37;99012.02;1694803;84;21566;-46
2022/07/06 07:29:29;;;;;;;9.33;6.28;;;;;;;30.20;42.64;99015.13;1694569;84;21716;-45
2022/07/06 07:31:56;;;;;;;8.18;6.70;;;;;;;30.28;42.07;99011.20;1694759;84;21116;-45
2022/07/06 07:34:23;;;;;;;7.00;6.08;;;;;;;30.38;42.27;99004.89;1694615;84;21112;-46
2022/07/06 07:36:50;;;;;;;8.23;6.22;;;;;;;30.52;41.75;99005.98;1694739;84;21546;-46
2022/07/06 07:39:19;;;;;;;6.70;5.90;;;;;;;30.65;41.43;99007.66;1694601;84;21241;-46
2022/07/06 07:41:46;;;;;;;11.15;6.03;;;;;;;30.80;40.85;99011.64;1701818;83;21568;-45
2022/07/06 07:44:14;;;;;;;6.37;5.40;;;;;;;30.93;39.86;99009.91;1720303;83;21015;-45
2022/07/06 07:46:41;;;;;;;6.42;5.47;;;;;;;31.00;39.47;99004.42;1691559;84;21020;-46
2022/07/06 07:49:10;;;;;;;7.03;5.40;;;;;;;31.09;39.55;99002.80;1691545;84;20960;-45
2022/07/06 07:51:38;;;;;;;7.77;5.53;;;;;;;31.15;39.95;99003.58;1691718;84;21154;-45
2022/07/06 07:54:05;;;;;;;7.25;4.97;;;;;;;31.24;39.25;99000.52;1691381;84;21036;-45
2022/07/06 07:56:34;;;;;;;6.80;4.60;;;;;;;31.34;38.73;98998.99;1720197;83;21915;-45
2022/07/06 07:59:01;;;;;;;7.85;4.90;;;;;;;31.48;37.91;98992.99;1720351;83;21062;-46
2022/07/06 08:01:31;;;;;;;6.30;4.80;;;;;;;31.59;38.16;98995.05;1691380;84;21534;-45
2022/07/06 08:03:58;;;;;;;8.98;4.65;;;;;;;31.69;37.32;98988.67;1691596;84;21249;-46
2022/07/06 08:06:26;;;;;;;5.62;4.58;;;;;;;31.87;37.32;98987.34;1691073;84;21487;-46
2022/07/06 08:08:54;;;;;;;5.63;4.77;;;;;;;32.02;36.93;98983.61;1691672;84;20940;-46
2022/07/06 08:11:21;;;;;;;7.35;4.58;;;;;;;32.20;37.40;98987.89;1691401;84;21031;-46
2022/07/06 08:13:48;;;;;;;9.35;4.60;;;;;;;32.32;35.63;98991.55;1691381;84;20988;-46
2022/07/06 08:16:15;;;;;;;7.53;4.92;;;;;;;32.45;35.80;98994.41;1691266;84;21127;-45
2022/07/06 08:18:42;;;;;;;8.10;4.05;;;;;;;32.53;35.16;98989.16;1691560;84;21019;-45
2022/07/06 08:21:09;;;;;;;9.48;4.53;;;;;;;32.58;35.18;99000.23;1691318;84;21098;-45
2022/07/06 08:23:38;;;;;;;5.60;4.12;;;;;;;32.66;35.30;98990.77;1691469;84;21452;-45
2022/07/06 08:26:06;;;;;;;5.42;3.87;;;;;;;32.81;35.15;98990.42;1691585;84;21043;-45
2022/07/06 08:28:33;;;;;;;6.33;4.25;;;;;;;32.95;34.64;98984.31;1691321;84;21245;-45
2022/07/06 08:31:00;;;;;;;5.78;3.98;;;;;;;33.07;33.55;98987.15;1691298;84;21053;-45
2022/07/06 08:33:28;;;;;;;5.87;3.85;;;;;;;33.15;33.37;98993.14;1691379;84;21035;-46
2022/07/06 08:35:55;;;;;;;6.15;4.20;;;;;;;33.18;33.58;98979.44;1691242;84;21107;-45
2022/07/06 08:38:22;;;;;;;7.10;4.65;;;;;;;33.28;33.53;98977.05;1691583;84;21076;-45
2022/07/06 08:40:50;;;;;;;5.03;4.10;;;;;;;33.34;33.05;98973.56;1691608;84;21258;-45
2022/07/06 08:43:17;;;;;;;5.05;4.03;;;;;;;33.32;32.61;98966.28;1675184;83;20986;-45
2022/07/06 08:45:45;;;;;;;4.72;3.80;;;;;;;33.30;33.62;98968.88;1734749;82;21080;-45
2022/07/06 08:48:13;;;;;;;8.48;4.10;;;;;;;33.41;33.82;98965.17;1734733;82;20954;-45
2022/07/06 08:50:40;;;;;;;7.20;3.70;;;;;;;33.51;32.63;98959.33;1734685;82;21073;-45
2022/07/06 08:53:07;;;;;;;4.75;3.75;;;;;;;33.56;32.51;98959.28;1734863;82;21073;-45
2022/07/06 08:55:35;;;;;;;4.53;3.87;;;;;;;33.62;32.89;98959.23;1734595;82;21399;-44
2022/07/06 08:58:04;;;;;;;5.10;4.47;;;;;;;33.75;33.87;98953.73;1735048;82;21002;-45
2022/07/06 09:00:31;;;;;;;7.70;4.20;;;;;;;33.87;33.15;98954.38;1735022;82;21579;-45
2022/07/06 09:02:58;;;;;;;6.28;4.00;;;;;;;33.96;34.00;98953.38;1734837;82;21077;-45
2022/07/06 09:05:26;;;;;;;5.22;4.08;;;;;;;34.09;32.59;98956.16;1734466;82;22050;-45
2022/07/06 09:07:53;;;;;;;4.90;4.25;;;;;;;34.18;31.28;98953.02;1734350;82;21540;-45
2022/07/06 09:10:21;;;;;;;5.25;4.22;;;;;;;34.25;31.17;98943.96;1734480;82;20970;-45
2022/07/06 09:12:49;;;;;;;7.92;4.90;;;;;;;34.29;29.37;98940.19;1734577;82;21037;-45
2022/07/06 09:15:16;;;;;;;6.20;4.60;;;;;;;34.22;29.80;98942.98;1715829;82;21036;-45
2022/07/06 09:17:44;;;;;;;8.45;5.03;;;;;;;34.21;29.51;98949.14;1705293;84;21312;-45
2022/07/06 09:20:12;;;;;;;10.80;5.25;;;;;;;34.22;29.17;98949.26;1705071;84;21101;-45
2022/07/06 09:22:40;;;;;;;4.70;4.20;;;;;;;34.23;28.90;98951.52;1705143;84;21013;-45
2022/07/06 09:25:12;;;;;;;4.92;4.30;;;;;;;34.13;29.58;98946.12;1705364;84;20891;-45
2022/07/06 09:27:47;;;;;;;5.00;4.30;;;;;;;34.12;30.92;98937.59;1705307;84;21133;-45
2022/07/06 09:30:14;;;;;;;8.65;4.55;;;;;;;34.23;29.78;98945.16;1705266;83;21029;-45
2022/07/06 09:32:50;;;;;;;7.12;4.47;;;;;;;34.34;30.73;98939.36;1705216;84;21483;-45
2022/07/06 09:35:23;;;;;;;5.42;4.85;;;;;;;34.49;30.73;98935.44;1705404;84;20962;-45
2022/07/06 09:38:14;;;;;;;9.15;5.20;;;;;;;34.69;29.81;98939.14;1705177;83;20981;-45
2022/07/06 09:40:45;;;;;;;5.65;5.05;;;;;;;34.75;28.83;98932.02;1705303;84;20930;-45
2022/07/06 09:43:22;;;;;;;7.17;4.92;;;;;;;34.69;29.47;98934.91;1713555;83;21952;-45
2022/07/06 09:45:56;;;;;;;5.53;4.62;;;;;;;34.72;29.63;98934.48;1718595;83;20992;-45
2022/07/06 09:48:27;;;;;;;6.47;5.03;;;;;;;34.72;29.81;98924.63;1718711;83;21029;-45
2022/07/06 09:51:02;;;;;;;5.30;4.75;;;;;;;34.75;29.58;98925.73;1718831;83;21576;-45
2022/07/06 09:53:29;;;;;;;8.95;4.95;;;;;;;34.77;29.25;98915.33;1718512;83;20997;-45
2022/07/06 09:56:01;;;;;;;6.53;5.05;;;;;;;34.75;29.62;98917.30;1718833;83;21721;-45
2022/07/06 09:58:28;;;;;;;5.97;4.50;;;;;;;34.77;30.01;98911.11;1718733;83;21041;-45
2022/07/06 10:00:56;;;;;;;7.67;4.65;;;;;;;34.82;29.83;98919.47;1718614;83;21028;-45
2022/07/06 10:03:24;;;;;;;5.60;5.10;;;;;;;34.78;29.23;98909.17;1718753;83;20926;-45
2022/07/06 10:05:51;;;;;;;8.40;4.47;;;;;;;34.71;29.42;98905.56;1718928;83;21053;-45
2022/07/06 10:08:18;;;;;;;6.20;4.40;;;;;;;34.64;29.67;98899.12;1718947;83;21075;-45
2022/07/06 10:10:49;;;;;;;5.20;4.63;;;;;;;34.61;29.67;98907.25;1692773;83;21496;-45
2022/07/06 10:13:16;;;;;;;5.70;4.42;;;;;;;34.62;29.67;98904.52;1718823;83;20918;-45
2022/07/06 10:15:44;;;;;;;6.85;4.60;;;;;;;34.62;29.26;98898.13;1719036;83;21870;-45
2022/07/06 10:18:12;;;;;;;6.23;5.10;;;;;;;34.67;29.22;98893.05;1719107;83;21068;-45
2022/07/06 10:20:39;;;;;;;5.40;4.65;;;;;;;34.77;28.83;98883.70;1718889;83;21248;-44
2022/07/06 10:23:08;;;;;;;9.00;4.75;;;;;;;34.94;29.10;98877.80;1718950;83;21522;-45
2022/07/06 10:25:37;;;;;;;8.30;4.87;;;;;;;35.18;28.48;98882.53;1718675;83;21034;-45
2022/07/06 10:28:13;;;;;;;7.22;4.85;;;;;;;35.39;28.27;98874.94;1718717;83;21593;-45
2022/07/06 10:30:33;;;;;;;9.70;5.28;;;;;;;35.62;28.17;98873.23;1717401;83;21074;-45
2022/07/06 10:33:01;;;;;;;5.85;5.10;;;;;;;35.88;27.88;98868.86;1718643;83;23152;-45
2022/07/06 10:35:28;;;;;;;6.40;5.17;;;;;;;36.11;26.89;98864.28;1718792;83;20988;-45
2022/07/06 10:38:06;;;;;;;7.15;5.03;;;;;;;36.15;26.21;98865.48;1718534;83;21105;-45
2022/07/06 10:43:48;;;;;;;6.83;5.10;;;;;;;36.15;27.16;98861.90;1718700;83;21084;-45
2022/07/06 10:46:17;;;;;;;6.00;5.33;;;;;;;36.20;25.22;98853.96;1718795;83;21243;-45
2022/07/06 10:48:46;;;;;;;6.72;4.90;;;;;;;36.12;26.38;98854.48;1718934;83;21515;-45
2022/07/06 10:51:27;;;;;;;7.30;5.35;;;;;;;35.98;26.76;98855.83;1718719;83;21005;-45
2022/07/06 10:54:05;;;;;;;6.28;4.85;;;;;;;35.80;27.03;98845.45;1715008;83;21632;-45
2022/07/06 10:56:36;;;;;;;6.23;5.33;;;;;;;35.57;26.49;98840.27;1717825;83;21037;-45
2022/07/06 10:59:18;;;;;;;7.03;5.47;;;;;;;35.28;27.28;98838.53;1718948;83;21099;-45
2022/07/06 11:02:17;;;;;;;6.90;5.30;;;;;;;35.00;27.95;98829.17;1718565;83;22129;-45
2022/07/06 11:04:48;;;;;;;;;;;;;;;34.84;27.07;98822.53;1721569;83;20969;-45
2022/07/06 11:07:19;;;;;;;7.45;5.50;;;;;;;34.69;27.31;98816.65;1718673;83;20217;-45
2022/07/06 11:09:58;;;;;;;8.30;5.60;;;;;;;34.48;27.42;98819.91;1718981;83;21096;-45
2022/07/06 11:12:25;;;;;;;7.22;5.17;;;;;;;34.41;28.17;98823.36;1718195;83;21209;-45
2022/07/06 11:14:52;;;;;;;5.92;5.25;;;;;;;34.34;28.24;98823.33;1741596;82;21009;-45
2022/07/06 11:17:20;;;;;;;6.15;5.25;;;;;;;34.45;28.17;98818.17;1748635;82;20992;-45
2022/07/06 11:20:09;;;;;;;9.80;5.30;;;;;;;34.52;28.37;98822.43;1748415;82;21578;-45
2022/07/06 11:22:38;;;;;;;6.08;5.45;;;;;;;34.58;28.34;98817.44;1748188;82;21080;-45
2022/07/06 11:25:06;;;;;;;5.92;5.33;;;;;;;34.52;28.35;98821.02;1748433;82;21217;-45
2022/07/06 11:27:34;;;;;;;6.47;5.55;;;;;;;34.39;28.64;98825.94;1748525;82;21084;-45
2022/07/06 11:30:02;;;;;;;6.83;5.17;;;;;;;34.20;27.95;98820.34;1748488;82;21012;-45
2022/07/06 11:32:29;;;;;;;6.53;5.20;;;;;;;33.99;28.39;98817.29;1748743;82;21007;-45
2022/07/06 11:34:57;;;;;;;7.17;5.10;;;;;;;33.74;28.26;98825.71;1748833;82;20998;-45
2022/07/06 11:37:25;;;;;;;9.15;5.30;;;;;;;33.48;28.68;98832.52;1748535;82;21826;-45
2022/07/06 11:39:52;;;;;;;7.10;4.60;;;;;;;33.09;31.79;98858.19;1748745;82;21507;-44
2022/07/06 11:42:19;;;;;;;10.68;5.42;;;;;;;32.45;33.41;98870.95;1748772;82;21012;-44
2022/07/06 11:44:46;;;;;;;15.72;5.45;;;;;;;31.64;35.84;98870.97;1735050;81;21021;-45
2022/07/06 11:47:14;;;;;;;11.65;5.30;;;;;;;30.89;38.88;98892.43;1734708;82;21041;-44